createdAt,value
2024-02-15T00:00:35.752Z,47.75
2024-02-15T00:03:07.677Z,47.84
2024-02-15T00:05:37.609Z,47.87
2024-02-15T00:08:07.148Z,47.90
2024-02-15T00:10:35.703Z,47.77
2024-02-15T00:13:07.469Z,47.78
2024-02-15T00:15:36.298Z,47.90
2024-02-15T00:18:05.155Z,48.00
2024-02-15T00:20:34.899Z,47.86
2024-02-15T00:23:03.097Z,47.95
2024-02-15T00:25:32.405Z,47.98
2024-02-15T00:28:02.940Z,47.94
2024-02-15T00:30:33.003Z,47.86
2024-02-15T00:33:02.266Z,47.91
2024-02-15T00:35:31.137Z,47.94
2024-02-15T00:38:00.151Z,47.83
2024-02-15T00:40:28.368Z,47.92
2024-02-15T00:42:56.611Z,47.81
2024-02-15T00:45:24.955Z,47.90
2024-02-15T00:47:55.348Z,47.84
2024-02-15T00:50:24.822Z,47.85
2024-02-15T00:52:53.079Z,47.91
2024-02-15T00:55:21.394Z,47.83
2024-02-15T00:57:49.788Z,47.90
2024-02-15T01:00:20.216Z,47.92
2024-02-15T01:02:48.520Z,47.98
2024-02-15T01:05:19.599Z,47.77
2024-02-15T01:07:49.468Z,47.95
2024-02-15T01:10:18.313Z,47.80
2024-02-15T01:12:46.578Z,48.10
2024-02-15T01:15:15.790Z,48.14
2024-02-15T01:17:44.258Z,48.07
2024-02-15T01:20:13.480Z,47.92
2024-02-15T01:22:45.387Z,48.00
2024-02-15T01:25:13.598Z,47.86
2024-02-15T01:27:42.074Z,47.81
2024-02-15T01:30:12.028Z,48.00
2024-02-15T01:32:43.310Z,47.95
2024-02-15T01:35:12.260Z,47.92
2024-02-15T01:37:42.030Z,47.97
2024-02-15T01:40:14.035Z,48.27
2024-02-15T01:42:42.325Z,47.94
2024-02-15T01:45:12.982Z,47.91
2024-02-15T01:47:42.381Z,48.12
2024-02-15T01:50:12.456Z,47.85
2024-02-15T01:52:43.560Z,48.03
2024-02-15T01:55:12.084Z,48.03
2024-02-15T01:57:41.149Z,48.13
2024-02-15T02:00:13.853Z,48.04
2024-02-15T02:02:46.647Z,48.11
2024-02-15T02:05:15.298Z,47.95
2024-02-15T02:07:46.512Z,47.91
2024-02-15T02:10:15.458Z,48.08
2024-02-15T02:12:43.638Z,48.11
2024-02-15T02:15:12.950Z,47.98
2024-02-15T02:17:42.018Z,47.88
2024-02-15T02:20:14.952Z,48.05
2024-02-15T02:22:47.528Z,48.20
2024-02-15T02:25:18.445Z,47.98
2024-02-15T02:27:47.110Z,47.93
2024-02-15T02:30:19.977Z,48.05
2024-02-15T02:32:48.513Z,47.99
2024-02-15T02:35:17.202Z,47.99
2024-02-15T02:37:46.175Z,47.99
2024-02-15T02:40:16.212Z,48.06
2024-02-15T02:42:52.402Z,48.07
2024-02-15T02:45:24.334Z,47.95
2024-02-15T02:47:54.382Z,48.13
2024-02-15T02:50:25.023Z,47.81
2024-02-15T02:52:53.960Z,48.07
2024-02-15T02:55:24.875Z,47.87
2024-02-15T02:57:54.110Z,48.10
2024-02-15T03:00:22.456Z,47.87
2024-02-15T03:02:50.676Z,48.16
2024-02-15T03:05:22.097Z,48.11
2024-02-15T03:07:52.838Z,48.04
2024-02-15T03:10:23.020Z,48.16
2024-02-15T03:12:51.152Z,48.05
2024-02-15T03:15:20.433Z,47.93
2024-02-15T03:17:50.401Z,48.04
2024-02-15T03:20:23.310Z,48.01
2024-02-15T03:22:59.284Z,48.17
2024-02-15T03:25:30.645Z,47.94
2024-02-15T03:28:04.097Z,48.17
2024-02-15T03:30:34.966Z,47.97
2024-02-15T03:33:04.533Z,48.03
2024-02-15T03:35:33.168Z,48.03
2024-02-15T03:38:01.897Z,48.11
2024-02-15T03:40:33.436Z,48.08
2024-02-15T03:43:01.890Z,48.06
2024-02-15T03:45:31.861Z,47.91
2024-02-15T03:48:00.214Z,48.07
2024-02-15T03:50:30.161Z,48.11
2024-02-15T03:53:00.962Z,48.07
2024-02-15T03:55:31.480Z,48.03
2024-02-15T03:58:00.957Z,48.02
2024-02-15T04:00:29.042Z,48.07
2024-02-15T04:02:57.904Z,48.09
2024-02-15T04:05:26.165Z,48.17
2024-02-15T04:07:54.748Z,48.07
2024-02-15T04:10:23.477Z,48.00
2024-02-15T04:12:52.170Z,48.26
2024-02-15T04:15:22.018Z,48.01
2024-02-15T04:17:56.969Z,48.07
2024-02-15T04:20:26.116Z,48.07
2024-02-15T04:22:55.887Z,48.24
2024-02-15T04:25:28.954Z,48.15
2024-02-15T04:27:58.740Z,48.17
2024-02-15T04:30:28.678Z,48.11
2024-02-15T04:32:56.989Z,48.01
2024-02-15T04:35:25.415Z,48.05
2024-02-15T04:37:54.366Z,48.04
2024-02-15T04:40:22.624Z,48.32
2024-02-15T04:42:50.822Z,48.39
2024-02-15T04:45:20.049Z,48.08
2024-02-15T04:47:54.020Z,48.35
2024-02-15T04:50:22.540Z,48.29
2024-02-15T04:52:53.644Z,48.22
2024-02-15T04:55:23.764Z,48.18
2024-02-15T04:57:56.227Z,48.38
2024-02-15T05:00:26.802Z,48.43
2024-02-15T05:02:56.844Z,48.13
2024-02-15T05:05:25.903Z,48.21
2024-02-15T05:07:54.571Z,48.20
2024-02-15T05:10:23.173Z,48.21
2024-02-15T05:12:51.907Z,48.08
2024-02-15T05:15:23.955Z,48.07
2024-02-15T05:17:52.561Z,47.81
2024-02-15T05:20:22.112Z,47.93
2024-02-15T05:22:51.463Z,48.02
2024-02-15T05:25:24.937Z,47.82
2024-02-15T05:27:56.405Z,47.71
2024-02-15T05:30:25.593Z,47.64
2024-02-15T05:32:55.478Z,47.67
2024-02-15T05:35:30.745Z,47.62
2024-02-15T05:37:58.866Z,47.53
2024-02-15T05:40:27.361Z,47.76
2024-02-15T05:43:03.267Z,47.62
2024-02-15T05:45:37.203Z,47.52
2024-02-15T05:48:10.153Z,47.60
2024-02-15T05:50:39.957Z,47.27
2024-02-15T05:53:09.104Z,47.48
2024-02-15T05:55:39.055Z,47.40
2024-02-15T05:58:09.265Z,47.32
2024-02-15T06:00:40.014Z,47.34
2024-02-15T06:03:10.388Z,47.50
2024-02-15T06:05:41.098Z,47.41
2024-02-15T06:08:09.778Z,47.35
2024-02-15T06:10:38.199Z,47.21
2024-02-15T06:13:06.421Z,47.25
2024-02-15T06:15:34.874Z,47.48
2024-02-15T06:18:04.147Z,47.34
2024-02-15T06:20:32.850Z,47.43
2024-02-15T06:23:02.962Z,47.30
2024-02-15T06:25:31.367Z,47.31
2024-02-15T06:28:03.669Z,47.26
2024-02-15T06:30:49.510Z,47.34
2024-02-15T06:33:49.867Z,47.28
2024-02-15T06:36:35.656Z,47.45
2024-02-15T06:39:23.149Z,47.31
2024-02-15T06:41:51.563Z,47.25
2024-02-15T06:44:20.608Z,47.40
2024-02-15T06:46:48.787Z,47.47
2024-02-15T06:49:17.622Z,47.34
2024-02-15T06:51:50.550Z,47.51
2024-02-15T06:54:20.470Z,47.49
2024-02-15T06:56:48.744Z,47.38
2024-02-15T06:59:17.818Z,47.52
2024-02-15T07:01:46.371Z,47.61
2024-02-15T07:04:14.631Z,47.32
2024-02-15T07:06:46.333Z,47.27
2024-02-15T07:09:16.146Z,47.15
2024-02-15T07:11:50.435Z,47.24
2024-02-15T07:14:20.707Z,47.20
2024-02-15T07:16:52.584Z,47.07
2024-02-15T07:19:23.813Z,47.11
2024-02-15T07:21:52.416Z,47.18
2024-02-15T07:24:21.496Z,47.26
2024-02-15T07:26:53.890Z,47.12
2024-02-15T07:29:22.437Z,47.10
2024-02-15T07:31:50.628Z,47.11
2024-02-15T07:34:19.332Z,47.30
2024-02-15T07:36:47.839Z,47.21
2024-02-15T07:39:24.358Z,47.29
2024-02-15T07:41:54.485Z,47.29
2024-02-15T07:44:23.375Z,47.09
2024-02-15T07:46:52.593Z,47.08
2024-02-15T07:49:21.064Z,47.24
2024-02-15T07:51:54.315Z,47.12
2024-02-15T07:54:23.396Z,47.08
2024-02-15T07:56:52.907Z,47.01
2024-02-15T07:59:22.798Z,47.15
2024-02-15T08:01:51.775Z,47.07
2024-02-15T08:04:22.399Z,47.05
2024-02-15T08:06:52.046Z,47.16
2024-02-15T08:09:22.865Z,47.23
2024-02-15T08:11:51.660Z,46.92
2024-02-15T08:14:21.814Z,46.98
2024-02-15T08:16:51.509Z,46.92
2024-02-15T08:19:20.012Z,46.91
2024-02-15T08:21:51.637Z,46.80
2024-02-15T08:24:19.996Z,46.95
2024-02-15T08:26:48.699Z,46.97
2024-02-15T08:29:19.048Z,46.93
2024-02-15T08:31:47.931Z,46.92
2024-02-15T08:34:19.562Z,47.10
2024-02-15T08:36:49.062Z,46.91
2024-02-15T08:39:18.114Z,47.00
2024-02-15T08:41:47.415Z,46.98
2024-02-15T08:44:18.184Z,46.89
2024-02-15T08:46:47.732Z,46.73
2024-02-15T08:49:18.704Z,46.81
2024-02-15T08:51:47.076Z,46.89
2024-02-15T08:54:15.371Z,46.91
2024-02-15T08:56:44.775Z,47.07
2024-02-15T08:59:13.161Z,46.92
2024-02-15T09:01:41.483Z,46.96
2024-02-15T09:04:09.734Z,46.94
2024-02-15T09:06:39.351Z,46.90
2024-02-15T09:09:07.686Z,47.06
2024-02-15T09:11:36.757Z,46.97
2024-02-15T09:14:05.146Z,47.03
2024-02-15T09:16:34.886Z,47.04
2024-02-15T09:19:03.738Z,47.08
2024-02-15T09:21:32.040Z,47.20
2024-02-15T09:24:01.648Z,47.13
2024-02-15T09:26:30.356Z,47.33
2024-02-15T09:28:58.873Z,47.23
2024-02-15T09:31:27.197Z,47.12
2024-02-15T09:33:55.764Z,47.38
2024-02-15T09:36:23.985Z,47.36
2024-02-15T09:38:52.201Z,47.34
2024-02-15T09:41:22.320Z,47.43
2024-02-15T09:43:50.470Z,47.32
2024-02-15T09:46:18.623Z,47.53
2024-02-15T09:48:52.113Z,47.49
2024-02-15T09:51:23.094Z,47.55
2024-02-15T09:53:51.258Z,47.41
2024-02-15T09:56:25.290Z,47.48
2024-02-15T09:58:53.822Z,47.50
2024-02-15T10:01:25.267Z,47.51
2024-02-15T10:03:54.207Z,47.41
2024-02-15T10:06:23.838Z,47.41
2024-02-15T10:08:53.182Z,47.41
2024-02-15T10:11:22.772Z,47.50
2024-02-15T10:13:51.272Z,47.46
2024-02-15T10:16:26.046Z,47.44
2024-02-15T10:18:54.682Z,47.55
2024-02-15T10:21:31.385Z,47.59
2024-02-15T10:24:08.648Z,47.57
2024-02-15T10:26:39.403Z,47.46
2024-02-15T10:29:12.139Z,47.70
2024-02-15T10:31:42.681Z,47.62
2024-02-15T10:34:12.494Z,47.67
2024-02-15T10:36:40.993Z,47.83
2024-02-15T10:39:21.334Z,47.67
2024-02-15T10:41:54.208Z,47.60
2024-02-15T10:44:24.564Z,47.57
2024-02-15T10:46:54.648Z,47.65
2024-02-15T10:49:24.649Z,47.32
2024-02-15T10:51:57.532Z,47.68
2024-02-15T10:54:43.928Z,47.46
2024-02-15T10:57:17.888Z,47.60
2024-02-15T10:59:56.544Z,47.80
2024-02-15T11:02:33.472Z,47.48
2024-02-15T11:05:11.213Z,47.46
2024-02-15T11:07:40.128Z,47.46
2024-02-15T11:10:12.334Z,47.60
2024-02-15T11:12:48.408Z,47.42
2024-02-15T11:15:51.126Z,47.57
2024-02-15T11:18:50.816Z,47.58
2024-02-15T11:21:19.559Z,47.43
2024-02-15T11:23:47.989Z,47.39
2024-02-15T11:26:49.470Z,47.55
2024-02-15T11:29:56.814Z,47.68
2024-02-15T11:32:40.786Z,47.44
2024-02-15T11:35:13.821Z,47.55
2024-02-15T11:38:05.513Z,47.74
2024-02-15T11:41:06.724Z,47.70
2024-02-15T11:44:00.159Z,47.73
2024-02-15T11:46:33.846Z,47.65
2024-02-15T11:49:04.795Z,47.71
2024-02-15T11:51:38.639Z,47.63
2024-02-15T11:54:11.326Z,47.74
2024-02-15T11:57:11.323Z,47.70
2024-02-15T12:00:16.028Z,47.70
2024-02-15T12:03:04.046Z,47.70
2024-02-15T12:05:49.723Z,47.94
2024-02-15T12:08:35.449Z,47.54
2024-02-15T12:18:43.562Z,100.00
2024-02-15T12:21:14.901Z,100.00
2024-02-15T12:23:43.474Z,100.00
2024-02-15T12:26:15.342Z,100.00
2024-02-15T12:28:47.119Z,100.00
2024-02-15T12:31:16.247Z,100.00
2024-02-15T12:33:48.040Z,100.00
2024-02-15T12:36:18.382Z,100.00
2024-02-15T12:38:47.344Z,100.00
2024-02-15T12:41:22.395Z,100.00
2024-02-15T12:43:55.691Z,100.00
2024-02-15T12:46:23.960Z,100.00
2024-02-15T12:48:54.115Z,100.00
2024-02-15T12:51:22.728Z,100.00
2024-02-15T12:53:51.098Z,100.00
2024-02-15T12:56:25.288Z,100.00
2024-02-15T12:58:53.550Z,100.00
2024-02-15T13:01:22.541Z,100.00
2024-02-15T13:03:50.797Z,100.00
2024-02-15T13:06:24.908Z,100.00
2024-02-15T13:08:53.321Z,100.00
2024-02-15T13:11:21.541Z,100.00
2024-02-15T13:13:49.856Z,100.00
2024-02-15T13:16:18.099Z,100.00
2024-02-15T13:18:48.346Z,100.00
2024-02-15T13:21:18.398Z,100.00
2024-02-15T13:23:49.185Z,100.00
2024-02-15T13:26:21.093Z,100.00
2024-02-15T13:28:50.739Z,100.00
2024-02-15T13:31:18.953Z,100.00
2024-02-15T13:33:48.583Z,100.00
2024-02-15T13:36:17.103Z,100.00
2024-02-15T13:38:46.753Z,100.00
2024-02-15T13:41:14.964Z,100.00
2024-02-15T13:43:43.309Z,100.00
2024-02-15T13:46:11.534Z,100.00
2024-02-15T13:48:40.010Z,100.00
2024-02-15T13:51:10.347Z,100.00
2024-02-15T13:53:38.854Z,100.00
2024-02-15T13:56:10.749Z,100.00
2024-02-15T13:58:38.924Z,100.00
2024-02-15T14:01:07.561Z,100.00
2024-02-15T14:03:35.936Z,100.00
2024-02-15T14:06:05.358Z,100.00
2024-02-15T14:08:33.638Z,100.00
2024-02-15T14:11:01.884Z,100.00
2024-02-15T14:13:31.763Z,100.00
2024-02-15T14:16:01.025Z,100.00
2024-02-15T14:18:29.491Z,100.00
2024-02-15T14:20:57.763Z,100.00
2024-02-15T14:23:28.617Z,100.00
2024-02-15T14:26:01.407Z,100.00
2024-02-15T14:28:30.852Z,100.00
2024-02-15T14:31:16.616Z,100.00
2024-02-15T14:33:44.960Z,100.00
2024-02-15T14:36:15.569Z,100.00
2024-02-15T14:38:43.886Z,100.00
2024-02-15T14:41:14.747Z,100.00
2024-02-15T14:43:45.562Z,100.00
2024-02-15T14:46:13.759Z,100.00
2024-02-15T14:48:42.447Z,100.00
2024-02-15T14:51:11.496Z,100.00
2024-02-15T14:53:39.900Z,100.00
2024-02-15T14:56:08.998Z,100.00
2024-02-15T14:58:37.323Z,100.00
2024-02-15T15:01:10.656Z,100.00
2024-02-15T15:03:40.127Z,100.00
2024-02-15T15:06:28.484Z,100.00
2024-02-15T15:09:16.685Z,100.00
2024-02-15T15:12:03.609Z,100.00
2024-02-15T15:14:32.046Z,100.00
2024-02-15T15:17:03.612Z,100.00
2024-02-15T15:19:32.847Z,100.00
2024-02-15T15:22:01.173Z,100.00
2024-02-15T15:24:29.514Z,100.00
2024-02-15T15:26:57.960Z,100.00
2024-02-15T15:29:26.330Z,100.00
2024-02-15T15:31:54.769Z,100.00
2024-02-15T15:34:24.550Z,100.00
2024-02-15T15:36:55.582Z,100.00
2024-02-15T15:39:25.728Z,100.00
2024-02-15T15:41:55.787Z,100.00
2024-02-15T15:44:28.258Z,100.00
2024-02-15T15:46:57.929Z,100.00
2024-02-15T15:49:27.730Z,100.00
2024-02-15T15:51:56.119Z,100.00
2024-02-15T15:54:24.461Z,100.00
2024-02-15T15:56:54.348Z,100.00
2024-02-15T15:59:22.640Z,100.00
2024-02-15T16:01:51.778Z,100.00
2024-02-15T16:04:20.119Z,100.00
2024-02-15T16:06:49.795Z,100.00
2024-02-15T16:09:18.048Z,100.00
2024-02-15T16:11:48.858Z,100.00
2024-02-15T16:14:19.623Z,100.00
2024-02-15T16:16:48.669Z,100.00
2024-02-15T16:19:16.889Z,100.00
2024-02-15T16:21:45.226Z,100.00
2024-02-15T16:24:14.932Z,100.00
2024-02-15T16:26:43.320Z,100.00
2024-02-15T16:29:11.476Z,100.00
2024-02-15T16:31:39.946Z,100.00
2024-02-15T16:34:08.460Z,100.00
2024-02-15T16:36:36.834Z,100.00
2024-02-15T16:39:05.231Z,100.00
2024-02-15T16:41:35.051Z,100.00
2024-02-15T16:44:03.638Z,100.00
2024-02-15T16:46:32.699Z,100.00
2024-02-15T16:49:01.384Z,100.00
2024-02-15T16:51:30.143Z,100.00
2024-02-15T16:53:58.601Z,100.00
2024-02-15T16:56:27.399Z,100.00
2024-02-15T16:58:57.605Z,100.00
2024-02-15T17:01:26.589Z,100.00
2024-02-15T17:03:56.766Z,100.00
2024-02-15T17:06:25.500Z,100.00
2024-02-15T17:08:57.065Z,100.00
2024-02-15T17:11:25.658Z,100.00
2024-02-15T17:13:56.488Z,100.00
2024-02-15T17:16:27.874Z,100.00
2024-02-15T17:18:56.576Z,100.00
2024-02-15T17:21:25.532Z,100.00
2024-02-15T17:23:53.956Z,100.00
2024-02-15T17:26:22.427Z,100.00
2024-02-15T17:28:50.622Z,100.00
2024-02-15T17:31:18.859Z,100.00
2024-02-15T17:33:48.697Z,100.00
2024-02-15T17:36:17.670Z,100.00
2024-02-15T17:38:46.076Z,100.00
2024-02-15T17:41:14.771Z,100.00
2024-02-15T17:43:43.257Z,100.00
2024-02-15T17:46:11.499Z,100.00
2024-02-15T17:48:39.780Z,100.00
2024-02-15T17:51:09.455Z,100.00
2024-02-15T17:53:38.403Z,100.00
2024-02-15T17:56:07.458Z,100.00
2024-02-15T17:58:36.240Z,100.00
2024-02-15T18:01:07.712Z,100.00
2024-02-15T18:03:35.984Z,100.00
2024-02-15T18:06:04.721Z,100.00
2024-02-15T18:08:34.829Z,100.00
2024-02-15T18:11:03.168Z,100.00
2024-02-15T18:13:31.467Z,100.00
2024-02-15T18:16:00.033Z,100.00
2024-02-15T18:18:29.692Z,100.00
2024-02-15T18:20:58.130Z,100.00
2024-02-15T18:23:26.346Z,100.00
2024-02-15T18:25:55.967Z,100.00
2024-02-15T18:28:28.719Z,100.00
2024-02-15T18:30:57.851Z,100.00
2024-02-15T18:33:28.599Z,100.00
2024-02-15T18:35:59.557Z,100.00
2024-02-15T18:38:28.840Z,100.00
2024-02-15T18:40:58.697Z,100.00
2024-02-15T18:43:27.642Z,100.00
2024-02-15T18:45:55.995Z,100.00
2024-02-15T18:48:24.396Z,100.00
2024-02-15T18:50:52.854Z,100.00
2024-02-15T18:53:21.941Z,100.00
2024-02-15T18:55:50.260Z,100.00
2024-02-15T18:58:23.087Z,100.00
2024-02-15T19:00:58.162Z,100.00
2024-02-15T19:03:27.465Z,100.00
2024-02-15T19:05:56.387Z,100.00
2024-02-15T19:08:28.242Z,100.00
2024-02-15T19:10:56.919Z,100.00
2024-02-15T19:13:28.444Z,100.00
2024-02-15T19:15:57.996Z,100.00
2024-02-15T19:18:29.564Z,100.00
2024-02-15T19:21:01.585Z,100.00
2024-02-15T19:23:30.485Z,100.00
2024-02-15T19:26:01.222Z,100.00
2024-02-15T19:28:32.115Z,100.00
2024-02-15T19:31:03.034Z,100.00
2024-02-15T19:33:44.275Z,100.00
2024-02-15T19:36:25.764Z,100.00
2024-02-15T19:38:56.261Z,100.00
2024-02-15T19:41:32.360Z,100.00
2024-02-15T19:44:04.833Z,100.00
2024-02-15T19:46:34.839Z,100.00
2024-02-15T19:49:05.270Z,100.00
2024-02-15T19:51:35.787Z,100.00
2024-02-15T19:54:06.246Z,100.00
2024-02-15T19:56:38.784Z,100.00
2024-02-15T19:59:12.335Z,100.00
2024-02-15T20:01:45.008Z,100.00
2024-02-15T20:04:13.735Z,100.00
2024-02-15T20:06:46.858Z,100.00
2024-02-15T20:09:22.309Z,100.00
2024-02-15T20:11:55.058Z,100.00
2024-02-15T20:14:32.874Z,100.00
2024-02-15T20:17:04.030Z,100.00
2024-02-15T20:19:34.863Z,100.00
2024-02-15T20:22:03.973Z,100.00
2024-02-15T20:24:34.828Z,100.00
2024-02-15T20:27:05.596Z,100.00
2024-02-15T20:29:38.534Z,100.00
2024-02-15T20:32:08.934Z,100.00
2024-02-15T20:34:38.289Z,100.00
2024-02-15T20:37:09.272Z,100.00
2024-02-15T20:39:38.751Z,100.00
2024-02-15T20:42:09.777Z,100.00
2024-02-15T20:44:44.360Z,100.00
2024-02-15T20:47:14.812Z,100.00
2024-02-15T20:49:46.613Z,100.00
2024-02-15T20:52:19.488Z,100.00
2024-02-15T20:54:48.127Z,100.00
2024-02-15T20:57:18.184Z,100.00
2024-02-15T20:59:48.383Z,100.00
2024-02-15T21:02:19.017Z,100.00
2024-02-15T21:04:47.466Z,100.00
2024-02-15T21:07:16.190Z,100.00
2024-02-15T21:09:45.004Z,100.00
2024-02-15T21:12:16.162Z,100.00
2024-02-15T21:14:44.829Z,100.00
2024-02-15T21:17:16.620Z,100.00
2024-02-15T21:19:45.554Z,100.00
2024-02-15T21:22:14.599Z,100.00
2024-02-15T21:24:43.391Z,100.00
2024-02-15T21:27:12.080Z,100.00
2024-02-15T21:29:43.545Z,100.00
2024-02-15T21:32:16.187Z,100.00
2024-02-15T21:34:44.851Z,100.00
2024-02-15T21:37:15.316Z,100.00
2024-02-15T21:39:45.636Z,100.00
2024-02-15T21:42:14.879Z,100.00
2024-02-15T21:44:45.039Z,100.00
2024-02-15T21:47:15.817Z,100.00
2024-02-15T21:49:44.818Z,100.00
2024-02-15T21:52:15.172Z,100.00
2024-02-15T21:54:44.622Z,100.00
2024-02-15T21:57:15.811Z,100.00
2024-02-15T21:59:47.817Z,100.00
2024-02-15T22:02:19.616Z,100.00
2024-02-15T22:04:53.905Z,100.00
2024-02-15T22:07:24.560Z,100.00
2024-02-15T22:09:53.982Z,100.00
2024-02-15T22:12:22.838Z,100.00
2024-02-15T22:14:53.091Z,100.00
2024-02-15T22:17:23.512Z,100.00
2024-02-15T22:19:52.016Z,100.00
2024-02-15T22:22:20.929Z,100.00
2024-02-15T22:24:49.665Z,100.00
2024-02-15T22:27:20.072Z,100.00
2024-02-15T22:29:48.933Z,100.00
2024-02-15T22:32:21.874Z,100.00
2024-02-15T22:34:52.427Z,100.00
2024-02-15T22:37:20.941Z,100.00
2024-02-15T22:39:49.396Z,100.00
2024-02-15T22:42:17.908Z,100.00
2024-02-15T22:44:50.296Z,100.00
2024-02-15T22:47:21.421Z,100.00
2024-02-15T22:49:51.710Z,100.00
2024-02-15T22:52:20.742Z,100.00
2024-02-15T22:54:50.202Z,100.00
2024-02-15T22:57:19.184Z,100.00
2024-02-15T22:59:47.865Z,100.00
2024-02-15T23:02:18.144Z,100.00
2024-02-15T23:04:48.906Z,100.00
2024-02-15T23:07:24.300Z,100.00
2024-02-15T23:09:54.452Z,100.00
2024-02-15T23:12:24.680Z,100.00
2024-02-15T23:14:53.634Z,100.00
2024-02-15T23:17:26.366Z,100.00
2024-02-15T23:19:54.689Z,100.00
2024-02-15T23:22:26.660Z,100.00
2024-02-15T23:24:58.029Z,100.00
2024-02-15T23:27:29.648Z,100.00
2024-02-15T23:29:59.729Z,100.00
2024-02-15T23:32:29.086Z,100.00
2024-02-15T23:34:57.750Z,100.00
2024-02-15T23:37:45.354Z,100.00
2024-02-15T23:40:33.245Z,100.00
2024-02-15T23:43:02.287Z,100.00
2024-02-15T23:45:33.953Z,100.00
2024-02-15T23:48:03.196Z,100.00
2024-02-15T23:50:33.970Z,100.00
2024-02-15T23:53:05.332Z,100.00
2024-02-15T23:55:35.682Z,100.00
2024-02-15T23:58:04.368Z,100.00
